createdAt,value
2022-08-31T00:01:57.576Z,99931.09
2022-08-31T00:06:03.333Z,99940.16
2022-08-31T00:10:14.504Z,99933.16
2022-08-31T00:14:17.946Z,99932.34
2022-08-31T00:18:23.787Z,99944.88
2022-08-31T00:22:26.923Z,99941.44
2022-08-31T00:26:30.447Z,99947.66
2022-08-31T00:30:34.848Z,99948.53
2022-08-31T00:34:39.497Z,99933.44
2022-08-31T00:38:43.151Z,99939.78
2022-08-31T00:42:46.657Z,99938.03
2022-08-31T00:46:49.968Z,99947.03
2022-08-31T00:50:54.952Z,99943.59
2022-08-31T00:55:01.375Z,99937.53
2022-08-31T00:59:05.437Z,99936.78
2022-08-31T01:03:10.674Z,99931.53
2022-08-31T01:07:15.931Z,99928.13
2022-08-31T01:11:21.406Z,99932.66
2022-08-31T01:15:26.358Z,99930.06
2022-08-31T01:19:34.179Z,99929.22
2022-08-31T01:23:42.922Z,99924.81
2022-08-31T01:27:47.103Z,99916.91
2022-08-31T01:31:50.823Z,99907.13
2022-08-31T01:35:54.508Z,99904.59
2022-08-31T01:39:59.716Z,99912.78
2022-08-31T01:44:03.878Z,99909.38
2022-08-31T01:48:08.074Z,99911.34
2022-08-31T01:52:11.495Z,99921.28
2022-08-31T01:56:20.494Z,99924.97
2022-08-31T02:00:25.067Z,99918.91
2022-08-31T02:04:30.094Z,99920.88
2022-08-31T02:08:33.542Z,99928.06
2022-08-31T02:12:38.478Z,99911.16
2022-08-31T02:16:44.276Z,99912.13
2022-08-31T02:20:47.813Z,99913.00
2022-08-31T02:24:53.338Z,99916.53
2022-08-31T02:28:58.369Z,99912.09
2022-08-31T02:33:01.670Z,99908.53
2022-08-31T02:37:05.482Z,99903.31
2022-08-31T02:41:14.306Z,99896.28
2022-08-31T02:45:20.738Z,99896.38
2022-08-31T02:49:26.946Z,99888.38
2022-08-31T02:53:31.148Z,99886.63
2022-08-31T02:57:34.846Z,99880.47
2022-08-31T03:01:40.204Z,99877.06
2022-08-31T03:05:43.867Z,99878.19
2022-08-31T03:09:47.231Z,99877.44
2022-08-31T03:13:51.796Z,99886.41
2022-08-31T03:17:58.003Z,99882.94
2022-08-31T03:22:01.515Z,99882.06
2022-08-31T03:26:06.284Z,99879.50
2022-08-31T03:30:13.004Z,99883.25
2022-08-31T03:34:20.873Z,99886.13
2022-08-31T03:38:24.298Z,99891.59
2022-08-31T03:42:29.610Z,99894.31
2022-08-31T03:46:36.760Z,99890.84
2022-08-31T03:50:42.815Z,99888.25
2022-08-31T03:54:52.092Z,99896.16
2022-08-31T03:58:55.634Z,99889.00
2022-08-31T04:03:18.898Z,99888.13
2022-08-31T04:07:46.629Z,99885.50
2022-08-31T04:12:08.704Z,99894.38
2022-08-31T04:16:23.594Z,99893.50
2022-08-31T04:20:53.172Z,99902.31
2022-08-31T04:24:58.072Z,99904.09
2022-08-31T04:29:01.641Z,99908.47
2022-08-31T04:33:05.037Z,99916.44
2022-08-31T04:37:09.996Z,99911.06
2022-08-31T04:41:17.561Z,99913.72
2022-08-31T04:45:21.508Z,99919.06
2022-08-31T04:49:25.029Z,99916.44
2022-08-31T04:53:28.573Z,99922.59
2022-08-31T04:57:36.034Z,99920.72
2022-08-31T05:01:42.884Z,99933.97
2022-08-31T05:05:52.487Z,99940.13
2022-08-31T05:09:56.147Z,99938.22
2022-08-31T05:14:03.017Z,99950.59
2022-08-31T05:18:06.411Z,99950.47
2022-08-31T05:22:13.863Z,99941.53
2022-08-31T05:26:26.487Z,99949.41
2022-08-31T05:30:31.947Z,99955.53
2022-08-31T05:34:44.844Z,99952.75
2022-08-31T05:38:48.214Z,99958.81
2022-08-31T05:42:51.671Z,99951.56
2022-08-31T05:47:03.812Z,99953.13
2022-08-31T05:51:11.422Z,99951.97
2022-08-31T05:55:16.666Z,99949.03
2022-08-31T05:59:19.944Z,99948.81
2022-08-31T06:03:24.688Z,99950.22
2022-08-31T06:07:29.635Z,99947.28
2022-08-31T06:11:42.287Z,99933.56
2022-08-31T06:15:49.676Z,99947.38
2022-08-31T06:19:55.997Z,99950.66
2022-08-31T06:23:59.780Z,99961.94
2022-08-31T06:28:05.784Z,99973.22
2022-08-31T06:32:11.205Z,99962.22
2022-08-31T06:36:21.131Z,99965.38
2022-08-31T06:40:48.930Z,99956.03
2022-08-31T06:45:13.662Z,99957.50
2022-08-31T06:49:30.777Z,99959.03
2022-08-31T06:53:36.980Z,99963.28
2022-08-31T06:58:00.457Z,99953.03
2022-08-31T07:02:22.345Z,99958.94
2022-08-31T07:06:27.951Z,99950.63
2022-08-31T07:10:35.956Z,99941.53
2022-08-31T07:14:39.710Z,99951.78
2022-08-31T07:18:44.460Z,99956.69
2022-08-31T07:22:49.165Z,99963.25
2022-08-31T07:27:18.569Z,99962.41
2022-08-31T07:31:37.657Z,99958.41
2022-08-31T07:35:41.274Z,99947.78
2022-08-31T07:40:14.454Z,99948.88
2022-08-31T07:44:21.633Z,99948.03
2022-08-31T07:48:25.766Z,99944.56
2022-08-31T07:52:51.875Z,99943.91
2022-08-31T07:57:13.841Z,99936.16
2022-08-31T08:01:19.789Z,99928.19
2022-08-31T08:05:27.265Z,99932.75
2022-08-31T08:09:51.685Z,99925.03
2022-08-31T08:14:14.209Z,99929.63
2022-08-31T08:18:30.523Z,99925.84
2022-08-31T08:22:51.849Z,99922.72
2022-08-31T08:27:07.471Z,99915.88
2022-08-31T08:31:14.553Z,99925.97
2022-08-31T08:35:19.579Z,99928.25
2022-08-31T08:39:23.368Z,99917.84
2022-08-31T08:43:52.382Z,99925.16
2022-08-31T08:47:59.328Z,99927.06
2022-08-31T08:52:11.989Z,99929.91
2022-08-31T08:56:32.340Z,99933.91
2022-08-31T09:00:38.708Z,99927.44
2022-08-31T09:04:59.958Z,99921.63
2022-08-31T09:09:38.674Z,99914.97
2022-08-31T09:13:53.171Z,99914.66
2022-08-31T09:18:07.281Z,99911.06
2022-08-31T09:22:12.011Z,99907.66
2022-08-31T09:26:19.242Z,99909.75
2022-08-31T09:30:52.321Z,99905.31
2022-08-31T09:34:59.120Z,99903.84
2022-08-31T09:39:16.555Z,99900.00
2022-08-31T09:43:30.026Z,99895.22
2022-08-31T09:47:56.086Z,99897.59
2022-08-31T09:52:22.059Z,99887.25
2022-08-31T09:56:26.433Z,99886.97
2022-08-31T10:00:36.409Z,99896.72
2022-08-31T10:04:52.365Z,99884.09
2022-08-31T10:09:00.471Z,99879.69
2022-08-31T10:13:08.064Z,99883.00
2022-08-31T10:17:17.637Z,99883.47
2022-08-31T10:21:25.147Z,99878.25
2022-08-31T10:25:33.231Z,99873.06
2022-08-31T10:29:44.291Z,99860.06
2022-08-31T10:34:13.966Z,99858.66
2022-08-31T10:38:26.419Z,99865.63
2022-08-31T10:42:37.437Z,99856.03
2022-08-31T10:46:41.125Z,99859.34
2022-08-31T10:50:52.569Z,99864.53
2022-08-31T10:55:06.661Z,99856.53
2022-08-31T10:59:20.070Z,99857.91
2022-08-31T11:03:40.285Z,99859.31
2022-08-31T11:07:52.354Z,99864.00
2022-08-31T11:12:07.187Z,99856.19
2022-08-31T11:16:21.985Z,99865.63
2022-08-31T11:20:52.171Z,99865.78
2022-08-31T11:25:30.550Z,99865.63
2022-08-31T11:29:41.670Z,99855.41
2022-08-31T11:34:14.234Z,99855.81
2022-08-31T11:38:47.986Z,99854.88
2022-08-31T11:43:01.409Z,99854.59
2022-08-31T11:47:08.283Z,99854.38
2022-08-31T11:51:11.700Z,99859.88
2022-08-31T11:55:28.528Z,99853.72
2022-08-31T11:59:44.515Z,99859.88
2022-08-31T12:03:53.987Z,99865.09
2022-08-31T12:07:58.465Z,99857.56
2022-08-31T12:12:11.496Z,99850.16
2022-08-31T12:16:36.926Z,99856.22
2022-08-31T12:21:11.057Z,99857.38
2022-08-31T12:25:25.001Z,99856.44
2022-08-31T12:29:31.088Z,99863.97
2022-08-31T12:33:39.791Z,99861.84
2022-08-31T12:37:43.662Z,99853.84
2022-08-31T12:41:52.763Z,99855.06
2022-08-31T12:46:28.547Z,99855.28
2022-08-31T12:50:41.767Z,99847.09
2022-08-31T12:55:14.663Z,99844.47
2022-08-31T12:59:45.640Z,99844.06
2022-08-31T13:03:56.239Z,99849.66
2022-08-31T13:08:01.198Z,99854.34
2022-08-31T13:12:04.685Z,99859.25
2022-08-31T13:16:09.034Z,99855.19
2022-08-31T13:20:19.579Z,99860.00
2022-08-31T13:24:31.039Z,99860.97
2022-08-31T13:28:35.165Z,99859.13
2022-08-31T13:32:45.607Z,99859.22
2022-08-31T13:36:53.589Z,99853.63
2022-08-31T13:40:58.498Z,99845.13
2022-08-31T13:45:04.433Z,99849.72
2022-08-31T13:49:10.914Z,99849.47
2022-08-31T13:53:44.176Z,99858.22
2022-08-31T13:58:00.346Z,99852.44
2022-08-31T14:02:08.051Z,99848.34
2022-08-31T14:06:24.008Z,99859.69
2022-08-31T14:10:32.032Z,99860.03
2022-08-31T14:14:44.228Z,99847.78
2022-08-31T14:18:50.657Z,99849.94
2022-08-31T14:22:54.382Z,99843.78
2022-08-31T14:26:59.457Z,99842.38
2022-08-31T14:31:12.581Z,99848.19
2022-08-31T14:35:16.056Z,99853.22
2022-08-31T14:39:19.955Z,99843.13
2022-08-31T14:43:23.627Z,99841.88
2022-08-31T14:47:31.606Z,99850.28
2022-08-31T14:51:35.733Z,99848.88
2022-08-31T14:55:40.515Z,99855.53
2022-08-31T14:59:47.242Z,99867.41
2022-08-31T15:03:52.939Z,99870.09
2022-08-31T15:07:57.372Z,99861.25
2022-08-31T15:12:01.434Z,99860.53
2022-08-31T15:16:05.309Z,99860.00
2022-08-31T15:20:11.792Z,99862.75
2022-08-31T15:24:15.855Z,99867.63
2022-08-31T15:28:19.587Z,99872.41
2022-08-31T15:32:23.047Z,99866.31
2022-08-31T15:36:28.641Z,99871.84
2022-08-31T15:40:38.544Z,99869.16
2022-08-31T15:44:45.868Z,99875.47
2022-08-31T15:48:49.044Z,99881.75
2022-08-31T15:52:54.930Z,99879.13
2022-08-31T15:56:58.383Z,99871.16
2022-08-31T16:01:05.401Z,99872.97
2022-08-31T16:05:10.412Z,99869.66
2022-08-31T16:09:15.233Z,99869.00
2022-08-31T16:13:19.415Z,99882.84
2022-08-31T16:17:23.102Z,99877.06
2022-08-31T16:21:28.115Z,99880.91
2022-08-31T16:25:41.901Z,99884.63
2022-08-31T16:29:52.215Z,99889.16
2022-08-31T16:33:55.857Z,99891.09
2022-08-31T16:37:59.099Z,99896.78
2022-08-31T16:42:03.796Z,99900.66
2022-08-31T16:46:37.033Z,99910.81
2022-08-31T16:50:32.542Z,99914.88
2022-08-31T16:54:36.453Z,99920.53
2022-08-31T16:58:51.705Z,99928.66
2022-08-31T17:02:55.714Z,99934.28
2022-08-31T17:06:59.264Z,99945.28
2022-08-31T17:11:04.249Z,99944.63
2022-08-31T17:15:14.018Z,99941.28
2022-08-31T17:19:19.842Z,99944.94
2022-08-31T17:23:24.575Z,99947.97
2022-08-31T17:27:28.627Z,99949.25
2022-08-31T17:31:36.622Z,99949.81
2022-08-31T17:35:42.881Z,99955.44
2022-08-31T17:39:47.251Z,99952.34
2022-08-31T17:43:50.512Z,99947.25
2022-08-31T17:47:56.063Z,99949.41
2022-08-31T17:52:04.318Z,99951.66
2022-08-31T17:56:08.043Z,99958.22
2022-08-31T18:00:16.017Z,99964.69
2022-08-31T18:04:23.305Z,99970.28
2022-08-31T18:08:26.568Z,99970.56
2022-08-31T18:12:30.237Z,99971.53
2022-08-31T18:16:33.550Z,99979.81
2022-08-31T18:20:40.626Z,99986.22
2022-08-31T18:24:44.609Z,99988.16
2022-08-31T18:28:48.603Z,99990.84
2022-08-31T18:32:52.617Z,100006.06
2022-08-31T18:36:59.284Z,100011.50
2022-08-31T18:41:22.407Z,100006.25
2022-08-31T18:45:25.955Z,100016.16
2022-08-31T18:49:34.257Z,100012.78
2022-08-31T18:53:39.205Z,100010.38
2022-08-31T18:57:49.151Z,100008.03
2022-08-31T19:01:52.806Z,100010.84
2022-08-31T19:05:56.712Z,100022.44
2022-08-31T19:10:01.583Z,100021.63
2022-08-31T19:14:06.023Z,100017.38
2022-08-31T19:18:09.828Z,100013.19
2022-08-31T19:22:13.866Z,100014.25
2022-08-31T19:26:27.018Z,100009.31
2022-08-31T19:30:32.087Z,100007.66
2022-08-31T19:34:38.701Z,100009.56
2022-08-31T19:38:42.618Z,100007.97
2022-08-31T19:47:24.423Z,100007.25
2022-08-31T19:51:31.458Z,100000.31
2022-08-31T19:55:35.824Z,100003.28
2022-08-31T19:59:41.347Z,100003.59
2022-08-31T20:03:46.046Z,100008.13
2022-08-31T20:07:49.870Z,100003.78
2022-08-31T20:12:00.126Z,100007.53
2022-08-31T20:16:06.193Z,100008.56
2022-08-31T20:20:13.443Z,100000.66
2022-08-31T20:24:16.867Z,100007.88
2022-08-31T20:28:23.741Z,100007.97
2022-08-31T20:32:29.084Z,100003.63
2022-08-31T20:36:33.664Z,100007.34
2022-08-31T20:40:38.685Z,100007.41
2022-08-31T20:44:49.098Z,100008.41
2022-08-31T20:49:11.442Z,100004.78
2022-08-31T20:53:15.605Z,100003.06
2022-08-31T20:57:23.088Z,100003.16
2022-08-31T21:01:26.298Z,100004.97
2022-08-31T21:05:39.292Z,100003.25
2022-08-31T21:09:44.709Z,99999.00
2022-08-31T21:13:48.270Z,99998.31
2022-08-31T21:17:51.720Z,100001.00
2022-08-31T21:22:02.224Z,100004.66
2022-08-31T21:26:08.833Z,99997.66
2022-08-31T21:30:13.289Z,100002.25
2022-08-31T21:34:18.628Z,99998.72
2022-08-31T21:38:23.258Z,100002.31
2022-08-31T21:42:26.484Z,100013.13
2022-08-31T21:46:30.338Z,99997.09
2022-08-31T21:50:33.603Z,100008.81
2022-08-31T21:54:40.871Z,100005.28
2022-08-31T21:58:44.824Z,100007.19
2022-08-31T22:02:48.164Z,100004.66
2022-08-31T22:06:51.379Z,99997.59
2022-08-31T22:10:56.249Z,100003.03
2022-08-31T22:14:59.564Z,100003.13
2022-08-31T22:19:03.092Z,99997.78
2022-08-31T22:23:07.422Z,99991.75
2022-08-31T22:27:14.137Z,99988.34
2022-08-31T22:31:20.493Z,99988.53
2022-08-31T22:35:24.117Z,99985.13
2022-08-31T22:39:29.558Z,99970.00
2022-08-31T22:43:34.708Z,99976.28
2022-08-31T22:47:49.359Z,99973.69
2022-08-31T22:51:54.334Z,99971.03
2022-08-31T22:55:57.591Z,99963.88
2022-08-31T23:00:02.441Z,99968.44
2022-08-31T23:04:08.824Z,99975.66
2022-08-31T23:08:12.483Z,99961.56
2022-08-31T23:12:15.841Z,99962.50
2022-08-31T23:16:24.948Z,99952.00
2022-08-31T23:20:28.394Z,99952.09
2022-08-31T23:24:37.194Z,99955.66
2022-08-31T23:28:40.846Z,99957.47
2022-08-31T23:32:47.918Z,99948.63
2022-08-31T23:36:53.435Z,99952.25
2022-08-31T23:40:57.348Z,99955.06
2022-08-31T23:45:00.572Z,99955.06
2022-08-31T23:49:07.627Z,99955.97
2022-08-31T23:53:14.993Z,99957.00
2022-08-31T23:57:32.854Z,99960.53
